Time;durP1;ratioP1;P1;durP2;ratioP2;P2;SDS_P1;SDS_P2;PMS_P1;PMS_P2;Temp;Humidity;BMP_temperature;BMP_pressure;BME280_temperature;BME280_humidity;BME280_pressure;Samples;Min_cycle;Max_cycle;Signal;HPM_P1;HPM_P2
2024/01/06 00:02:16;;;;;;;17.95;10.65;;;;;;;7.09;51.27;93694.22;5039307;28;20031;-85
2024/01/06 00:04:42;;;;;;;20.90;10.50;;;;;;;7.01;51.22;93671.09;5008630;28;20109;-85
2024/01/06 00:07:07;;;;;;;18.40;10.07;;;;;;;6.68;50.80;93589.25;5014246;28;20040;-85
2024/01/06 00:09:33;;;;;;;15.77;9.27;;;;;;;7.28;50.55;93661.28;5013221;28;20313;-84
2024/01/06 00:11:58;;;;;;;15.35;8.73;;;;;;;6.24;50.22;93483.38;5004899;28;20053;-85
2024/01/06 00:14:24;;;;;;;12.68;6.47;;;;;;;7.41;49.08;93659.69;5010669;28;20126;-84
2024/01/06 00:16:49;;;;;;;5.97;4.47;;;;;;;7.39;48.17;93653.13;5028789;28;20046;-85
2024/01/06 00:19:16;;;;;;;9.70;5.03;;;;;;;6.57;48.59;93542.94;5017700;28;20026;-85
2024/01/06 00:21:44;;;;;;;5.32;3.38;;;;;;;7.57;48.74;93700.66;5017062;28;20493;-85
2024/01/06 00:24:09;;;;;;;8.20;4.80;;;;;;;7.63;49.12;93691.50;4988677;28;20039;-84
2024/01/06 00:26:36;;;;;;;7.10;3.95;;;;;;;6.96;48.71;93547.69;4972271;28;20045;-85
2024/01/06 00:29:01;;;;;;;5.68;3.42;;;;;;;7.80;48.41;93677.69;5001234;28;20050;-85
2024/01/06 00:31:27;;;;;;;5.88;2.88;;;;;;;7.23;47.66;93610.34;4993143;28;20033;-85
2024/01/06 00:33:52;;;;;;;3.38;2.03;;;;;;;7.88;47.37;93689.41;4983701;28;20397;-84
2024/01/06 00:36:17;;;;;;;2.05;1.58;;;;;;;7.88;46.94;93682.25;5005160;28;20038;-85
2024/01/06 00:38:43;;;;;;;5.93;2.15;;;;;;;7.48;46.67;93623.06;5004458;28;20100;-85
2024/01/06 00:41:08;;;;;;;2.42;1.70;;;;;;;7.80;46.47;93666.31;5007387;28;20041;-85
2024/01/06 00:43:34;;;;;;;5.03;1.65;;;;;;;7.23;46.92;93584.69;5009420;28;20086;-85
2024/01/06 00:45:59;;;;;;;3.10;2.22;;;;;;;7.46;46.92;93683.41;5004101;28;20033;-85
2024/01/06 00:48:25;;;;;;;8.25;5.00;;;;;;;6.82;47.97;93600.59;4989593;28;20026;-85
2024/01/06 00:50:50;;;;;;;4.78;2.83;;;;;;;6.51;47.35;93509.75;5005759;28;20049;-85
2024/01/06 00:53:15;;;;;;;3.70;2.75;;;;;;;7.45;47.96;93655.38;5040514;28;20037;-85
2024/01/06 00:55:41;;;;;;;5.60;2.60;;;;;;;7.49;48.59;93680.16;5039959;28;20038;-85
2024/01/06 00:58:06;;;;;;;3.03;2.58;;;;;;;7.51;48.11;93678.00;5004045;28;20075;-85
2024/01/06 01:00:32;;;;;;;3.05;2.30;;;;;;;7.48;47.42;93677.84;5001903;28;20030;-85
2024/01/06 01:02:57;;;;;;;4.95;2.70;;;;;;;7.44;47.83;93674.97;5035424;28;20054;-85
2024/01/06 01:05:23;;;;;;;2.58;2.05;;;;;;;7.49;47.85;93669.56;5033474;28;20050;-85
2024/01/06 01:07:48;;;;;;;6.18;2.13;;;;;;;7.48;48.05;93670.69;5018595;28;20419;-85
2024/01/06 01:10:14;;;;;;;2.75;1.92;;;;;;;7.16;48.52;93647.78;5015244;28;20037;-85
2024/01/06 01:12:39;;;;;;;9.35;5.55;;;;;;;6.96;48.05;93665.88;5014237;28;20030;-85
2024/01/06 01:15:05;;;;;;;6.85;3.90;;;;;;;7.00;48.32;93648.34;5006540;28;20034;-85
2024/01/06 01:17:31;;;;;;;8.55;3.90;;;;;;;7.07;48.74;93638.19;4999114;28;20038;-85
2024/01/06 01:19:56;;;;;;;4.55;3.33;;;;;;;7.19;48.09;93641.88;5011712;28;20530;-85
2024/01/06 01:22:21;;;;;;;4.78;2.83;;;;;;;7.34;48.08;93667.25;5035405;28;20037;-84
2024/01/06 01:24:50;;;;;;;3.53;2.50;;;;;;;6.88;48.22;93600.50;5037040;28;20474;-85
2024/01/06 01:27:15;;;;;;;2.35;2.00;;;;;;;7.22;47.95;93659.03;5027751;28;20176;-84
2024/01/06 01:29:41;;;;;;;4.68;1.63;;;;;;;7.26;47.95;93658.16;5000260;28;20045;-84
2024/01/06 01:32:06;;;;;;;3.40;1.85;;;;;;;7.09;47.73;93622.81;5000125;28;20148;-84
2024/01/06 01:34:31;;;;;;;3.28;2.13;;;;;;;7.00;48.17;93648.34;5002297;28;20133;-85
2024/01/06 01:36:57;;;;;;;5.93;4.65;;;;;;;6.45;48.27;93569.06;5003191;28;20026;-84
2024/01/06 01:39:22;;;;;;;3.17;2.25;;;;;;;7.01;48.12;93644.63;5000243;28;20323;-85
2024/01/06 01:41:48;;;;;;;4.68;2.80;;;;;;;6.18;48.58;93529.41;5004611;28;20064;-84
2024/01/06 01:44:13;;;;;;;7.90;4.00;;;;;;;7.04;48.53;93636.13;5002574;28;20052;-84
2024/01/06 01:46:39;;;;;;;8.10;3.80;;;;;;;6.47;48.66;93537.84;5002091;28;20654;-85
2024/01/06 01:49:05;;;;;;;11.02;6.53;;;;;;;6.99;49.09;93609.78;5000635;28;20726;-85
2024/01/06 01:51:34;;;;;;;10.50;6.65;;;;;;;7.18;49.25;93623.69;5001485;28;20041;-84
2024/01/06 01:54:05;;;;;;;11.60;6.60;;;;;;;6.75;48.86;93547.31;5000726;28;20526;-85
2024/01/06 01:56:34;;;;;;;11.20;6.38;;;;;;;7.36;48.57;93636.00;5001330;28;20056;-85
2024/01/06 01:59:10;;;;;;;5.25;3.75;;;;;;;6.63;48.51;93511.91;4996831;28;20054;-85
2024/01/06 02:01:36;;;;;;;3.80;3.22;;;;;;;7.41;48.29;93611.28;5017234;28;20468;-85
2024/01/06 02:04:03;;;;;;;3.35;2.45;;;;;;;6.20;48.21;93424.28;5001238;28;20044;-85
2024/01/06 02:06:28;;;;;;;5.38;2.47;;;;;;;7.29;47.85;93580.06;5009071;28;20489;-85
2024/01/06 02:08:55;;;;;;;2.10;1.80;;;;;;;7.50;48.02;93615.56;4996775;28;20042;-85
2024/01/06 02:11:20;;;;;;;2.17;1.75;;;;;;;7.53;48.33;93608.94;4998250;28;20054;-85
2024/01/06 02:13:46;;;;;;;5.60;1.90;;;;;;;7.44;48.50;93600.88;4999740;28;20037;-85
2024/01/06 02:16:11;;;;;;;2.63;1.70;;;;;;;6.49;48.72;93453.81;4998939;28;20311;-85
2024/01/06 02:18:36;;;;;;;3.42;1.98;;;;;;;7.49;48.32;93600.78;5001029;28;20508;-85
2024/01/06 02:21:02;;;;;;;6.25;4.68;;;;;;;6.64;48.60;93487.84;5000951;28;20474;-85
2024/01/06 02:23:29;;;;;;;6.45;3.65;;;;;;;6.74;49.08;93593.34;5031962;28;20653;-84
2024/01/06 02:25:55;;;;;;;5.30;3.10;;;;;;;6.74;49.27;93598.66;5008990;28;20045;-84
2024/01/06 02:28:21;;;;;;;8.32;5.80;;;;;;;6.35;49.15;93484.75;5005415;28;20121;-85
2024/01/06 02:30:46;;;;;;;9.82;6.22;;;;;;;6.41;49.32;93494.09;5015381;28;20009;-85
2024/01/06 02:33:12;;;;;;;6.55;3.80;;;;;;;6.57;49.22;93490.09;5030379;28;20408;-85
2024/01/06 02:35:46;;;;;;;12.35;3.42;;;;;;;6.49;49.64;93509.28;5000080;28;20042;-85
2024/01/06 02:38:12;;;;;;;7.03;3.20;;;;;;;5.24;50.66;93371.41;4999047;28;20628;-84
2024/01/06 02:40:37;;;;;;;4.18;3.05;;;;;;;5.57;50.00;93367.66;4997580;28;21003;-85
2024/01/06 02:43:03;;;;;;;4.30;3.10;;;;;;;6.38;50.12;93481.50;4997843;28;20552;-85
2024/01/06 02:45:28;;;;;;;6.95;4.93;;;;;;;7.13;49.61;93557.66;5034030;28;20215;-85
2024/01/06 02:47:54;;;;;;;8.00;4.95;;;;;;;6.62;49.74;93483.91;5031671;28;20046;-85
2024/01/06 02:50:19;;;;;;;5.25;3.65;;;;;;;6.81;49.55;93503.06;4998907;28;20477;-85
2024/01/06 02:52:45;;;;;;;7.88;3.65;;;;;;;7.23;49.85;93558.25;4996396;28;20526;-86
2024/01/06 02:55:11;;;;;;;5.18;3.38;;;;;;;7.31;49.23;93554.09;5001773;28;20044;-85
2024/01/06 02:57:37;;;;;;;5.15;3.22;;;;;;;7.26;49.53;93548.91;4988098;28;20760;-84
2024/01/06 03:00:03;;;;;;;6.38;4.13;;;;;;;6.04;49.68;93362.28;4993288;28;20141;-85
2024/01/06 03:02:29;;;;;;;3.78;2.90;;;;;;;7.24;49.71;93532.53;4998711;28;20029;-85
2024/01/06 03:04:54;;;;;;;3.63;2.45;;;;;;;6.35;49.53;93384.38;4995129;28;20087;-85
2024/01/06 03:07:20;;;;;;;4.47;3.15;;;;;;;6.79;49.68;93474.31;4999283;28;20481;-84
2024/01/06 03:09:46;;;;;;;6.72;4.38;;;;;;;7.02;50.48;93517.44;4996854;28;20918;-85
2024/01/06 03:12:11;;;;;;;8.00;4.93;;;;;;;6.21;50.28;93399.47;5006720;28;20077;-85
2024/01/06 03:14:37;;;;;;;9.20;4.43;;;;;;;7.21;50.26;93544.53;4996808;28;20056;-85
2024/01/06 03:17:03;;;;;;;12.68;6.63;;;;;;;6.64;51.66;93508.19;5033270;28;20044;-84
2024/01/06 03:19:30;;;;;;;7.00;5.00;;;;;;;6.74;51.21;93497.44;5001305;28;20068;-84
2024/01/06 03:21:55;;;;;;;12.55;7.45;;;;;;;7.03;50.80;93531.44;5003399;28;20417;-85
2024/01/06 03:24:23;;;;;;;10.88;7.10;;;;;;;5.87;50.47;93329.34;4997542;28;20038;-85
2024/01/06 03:26:48;;;;;;;14.50;9.50;;;;;;;5.88;50.67;93340.69;4998348;28;20160;-85
2024/01/06 03:29:17;;;;;;;16.15;9.80;;;;;;;6.54;50.64;93445.78;5033670;28;20106;-85
2024/01/06 03:31:43;;;;;;;15.00;9.10;;;;;;;6.70;50.95;93475.31;5018186;28;20533;-85
2024/01/06 03:34:10;;;;;;;20.50;11.07;;;;;;;6.94;51.12;93538.50;5008603;28;20694;-84
2024/01/06 03:36:35;;;;;;;14.48;9.35;;;;;;;6.98;51.06;93534.97;5016392;28;20095;-85
2024/01/06 03:39:10;;;;;;;18.90;10.85;;;;;;;6.34;50.82;93415.28;5013576;28;20612;-85
2024/01/06 03:41:35;;;;;;;14.40;9.88;;;;;;;6.41;50.98;93420.94;5001965;28;20053;-85
2024/01/06 03:44:00;;;;;;;13.23;7.85;;;;;;;6.68;50.89;93462.38;5003861;28;20037;-84
2024/01/06 03:46:27;;;;;;;6.70;4.70;;;;;;;6.62;50.67;93455.63;4997155;28;20732;-85
2024/01/06 03:48:52;;;;;;;7.25;3.67;;;;;;;7.10;50.40;93537.09;4982347;28;20568;-85
2024/01/06 03:51:18;;;;;;;5.47;3.47;;;;;;;6.83;50.93;93500.94;4997478;28;20052;-85
2024/01/06 03:53:43;;;;;;;3.97;2.13;;;;;;;6.35;50.87;93447.75;4981168;28;20064;-84
2024/01/06 03:56:09;;;;;;;3.80;2.08;;;;;;;6.90;51.16;93532.25;4986125;28;20044;-84
2024/01/06 03:58:34;;;;;;;2.03;1.70;;;;;;;6.94;51.06;93533.22;4997012;28;20038;-84
2024/01/06 04:01:00;;;;;;;4.13;2.67;;;;;;;6.23;51.44;93428.97;4996851;28;20039;-85
2024/01/06 04:03:26;;;;;;;4.97;3.08;;;;;;;6.89;51.39;93526.19;5034958;28;20024;-85
2024/01/06 04:05:51;;;;;;;6.32;4.35;;;;;;;6.24;51.01;93409.41;5010113;28;20230;-85
2024/01/06 04:08:18;;;;;;;6.68;3.65;;;;;;;6.84;51.33;93519.16;5003556;28;20041;-85
2024/01/06 04:10:43;;;;;;;3.72;3.08;;;;;;;6.89;51.15;93520.13;5016627;28;20048;-85
2024/01/06 04:13:25;;;;;;;5.10;2.35;;;;;;;6.99;50.35;93525.97;4996961;28;20984;-85
2024/01/06 04:15:51;;;;;;;2.58;2.22;;;;;;;7.02;50.66;93521.94;5004327;28;20025;-85
2024/01/06 04:18:16;;;;;;;5.47;1.80;;;;;;;6.30;49.94;93400.31;5004886;28;20508;-85
2024/01/06 04:20:42;;;;;;;2.42;1.95;;;;;;;7.06;50.28;93520.25;5000430;28;20496;-84
2024/01/06 04:23:07;;;;;;;4.30;2.92;;;;;;;6.63;50.07;93445.84;4997584;28;20382;-85
2024/01/06 04:25:33;;;;;;;4.72;2.05;;;;;;;6.71;49.73;93453.84;5002845;28;20705;-85
2024/01/06 04:27:58;;;;;;;4.63;2.47;;;;;;;6.99;50.25;93490.81;4999604;28;20058;-85
2024/01/06 04:30:25;;;;;;;4.63;2.45;;;;;;;6.55;49.15;93410.34;4993058;28;20778;-84
2024/01/06 04:32:50;;;;;;;5.88;2.15;;;;;;;7.12;49.80;93535.72;5000522;28;20460;-85
2024/01/06 04:35:17;;;;;;;5.32;3.08;;;;;;;7.02;50.17;93535.94;5001605;28;20046;-85
2024/01/06 04:37:42;;;;;;;3.63;2.05;;;;;;;6.69;50.41;93481.66;5004232;28;20061;-84
2024/01/06 04:40:08;;;;;;;3.78;2.15;;;;;;;6.61;49.81;93466.50;5005429;28;20125;-84
2024/01/06 04:42:34;;;;;;;6.20;2.42;;;;;;;7.01;50.30;93528.31;5021434;28;20033;-84
2024/01/06 04:45:05;;;;;;;5.68;3.05;;;;;;;5.74;51.20;93421.69;5021328;28;20037;-84
2024/01/06 04:47:30;;;;;;;3.70;2.58;;;;;;;6.75;51.14;93538.63;5028421;28;20033;-84
2024/01/06 04:49:56;;;;;;;7.32;3.22;;;;;;;6.57;51.07;93537.66;5031684;28;20812;-85
2024/01/06 04:52:22;;;;;;;4.60;2.72;;;;;;;6.65;50.79;93558.09;5022021;28;20581;-85
2024/01/06 04:54:48;;;;;;;4.95;2.85;;;;;;;6.43;50.81;93508.59;5039607;28;20395;-84
2024/01/06 04:57:14;;;;;;;9.27;3.42;;;;;;;6.54;51.04;93519.75;5023752;28;20045;-84
2024/01/06 04:59:39;;;;;;;8.20;3.70;;;;;;;6.78;50.69;93544.13;5022427;28;20038;-84
2024/01/06 05:02:05;;;;;;;10.15;4.25;;;;;;;6.82;50.48;93536.38;5023036;28;20041;-85
2024/01/06 05:04:32;;;;;;;6.70;4.43;;;;;;;6.82;51.17;93536.38;5017356;28;20444;-84
2024/01/06 05:06:58;;;;;;;8.45;4.90;;;;;;;6.83;50.93;93527.38;5006771;28;20044;-84
2024/01/06 05:09:23;;;;;;;11.10;6.82;;;;;;;6.90;50.78;93542.84;5005419;28;20492;-85
2024/01/06 05:11:48;;;;;;;10.07;6.45;;;;;;;6.59;51.26;93506.44;5003259;28;20041;-85
2024/01/06 05:14:14;;;;;;;13.38;7.05;;;;;;;6.16;53.11;93527.09;4985201;28;20038;-85
2024/01/06 05:16:39;;;;;;;13.88;7.95;;;;;;;6.30;52.61;93529.72;4991778;28;20034;-85
2024/01/06 05:19:05;;;;;;;10.55;6.28;;;;;;;6.29;52.28;93491.19;4982246;28;20036;-85
2024/01/06 05:21:31;;;;;;;9.57;6.72;;;;;;;6.33;51.99;93486.88;4995337;28;20398;-85
2024/01/06 05:23:56;;;;;;;14.23;7.30;;;;;;;4.33;53.38;93288.59;5017453;28;20036;-84
2024/01/06 05:26:21;;;;;;;10.65;5.95;;;;;;;5.82;53.72;93513.41;4987806;28;20075;-84
2024/01/06 05:28:47;;;;;;;7.57;5.53;;;;;;;6.13;53.29;93508.34;5018049;28;20597;-85
2024/01/06 05:31:12;;;;;;;10.95;5.93;;;;;;;6.18;52.81;93521.50;4986237;28;20453;-85
2024/01/06 05:33:38;;;;;;;11.77;5.00;;;;;;;6.14;52.68;93496.72;4986431;28;20018;-84
2024/01/06 05:36:04;;;;;;;10.05;4.80;;;;;;;6.12;52.71;93501.50;4987307;28;20154;-84
2024/01/06 05:38:32;;;;;;;10.75;7.18;;;;;;;6.22;52.60;93498.72;4990361;28;20410;-85
2024/01/06 05:40:58;;;;;;;10.02;5.55;;;;;;;6.24;52.49;93517.69;4982630;28;20050;-85
2024/01/06 05:43:23;;;;;;;8.63;6.10;;;;;;;6.15;52.26;93503.56;4984403;28;20061;-84
2024/01/06 05:45:49;;;;;;;8.88;5.68;;;;;;;6.08;52.42;93488.13;4990739;28;20486;-85
2024/01/06 05:48:15;;;;;;;8.65;5.15;;;;;;;5.99;52.25;93466.91;4987424;28;20042;-84
2024/01/06 05:50:40;;;;;;;9.35;4.53;;;;;;;6.18;52.58;93505.66;4989236;28;20053;-85
2024/01/06 05:53:06;;;;;;;5.95;4.18;;;;;;;6.26;52.12;93507.63;4992580;28;20505;-85
2024/01/06 05:55:32;;;;;;;6.97;4.55;;;;;;;6.22;52.41;93496.06;5004875;28;20506;-85
2024/01/06 05:57:58;;;;;;;5.78;2.80;;;;;;;5.61;52.19;93396.88;5032500;28;20029;-85
2024/01/06 06:00:23;;;;;;;4.40;3.10;;;;;;;6.23;52.20;93500.28;5010532;28;20038;-83
2024/01/06 06:02:49;;;;;;;6.15;3.25;;;;;;;6.06;51.85;93463.09;5003605;28;20366;-84
2024/01/06 06:05:14;;;;;;;7.22;4.70;;;;;;;5.99;52.03;93458.97;5036687;28;20510;-85
2024/01/06 06:07:40;;;;;;;12.77;6.28;;;;;;;6.35;51.91;93505.88;5006795;28;20096;-85
2024/01/06 06:10:10;;;;;;;7.63;5.13;;;;;;;6.38;51.82;93502.63;5002481;28;20014;-85
2024/01/06 06:12:39;;;;;;;14.73;8.82;;;;;;;6.04;52.35;93499.56;5004413;28;20500;-84
2024/01/06 06:15:06;;;;;;;14.73;6.03;;;;;;;6.13;52.52;93490.66;5001956;28;20128;-84
2024/01/06 06:17:32;;;;;;;9.38;5.50;;;;;;;5.93;52.25;93441.66;5004897;28;22516;-84
2024/01/06 06:19:58;;;;;;;10.30;5.63;;;;;;;5.88;53.11;93483.97;5013125;28;20934;-84
2024/01/06 06:22:30;;;;;;;8.93;5.72;;;;;;;5.81;53.36;93496.00;5035846;28;20511;-84
2024/01/06 06:25:01;;;;;;;9.63;5.88;;;;;;;5.77;53.14;93493.16;5000818;28;20444;-84
2024/01/06 06:27:27;;;;;;;8.60;7.32;;;;;;;5.56;54.33;93495.34;5007113;28;20493;-84
2024/01/06 06:29:56;;;;;;;13.27;9.13;;;;;;;5.11;55.45;93493.44;5023907;28;20038;-83
2024/01/06 06:32:21;;;;;;;26.30;11.35;;;;;;;5.46;54.64;93500.00;4999134;28;20099;-84
2024/01/06 06:34:47;;;;;;;19.25;9.05;;;;;;;5.04;54.26;93419.22;5030435;28;20049;-84
2024/01/06 06:37:12;;;;;;;16.27;10.45;;;;;;;5.55;54.38;93508.84;4980418;28;20062;-84
2024/01/06 06:39:38;;;;;;;16.38;10.13;;;;;;;5.46;54.54;93495.53;4983183;28;20034;-84
2024/01/06 06:42:04;;;;;;;13.55;7.88;;;;;;;5.67;53.81;93501.25;4993780;28;20052;-84
2024/01/06 06:44:30;;;;;;;10.23;6.20;;;;;;;5.51;54.71;93518.41;4983567;28;20531;-84
2024/01/06 06:46:58;;;;;;;25.15;14.85;;;;;;;4.00;58.34;93494.81;4984339;28;20587;-84
2024/01/06 06:49:23;;;;;;;28.45;17.55;;;;;;;3.96;59.33;93510.38;4979209;28;20045;-84
2024/01/06 06:51:49;;;;;;;25.42;15.15;;;;;;;4.36;58.89;93492.56;4981380;28;20026;-85
2024/01/06 06:54:15;;;;;;;16.70;11.85;;;;;;;4.98;57.22;93518.66;4985002;28;20042;-84
2024/01/06 06:56:44;;;;;;;19.40;12.65;;;;;;;4.70;57.68;93509.00;4984239;28;20049;-84
2024/01/06 06:59:10;;;;;;;16.35;10.82;;;;;;;4.22;57.24;93403.72;5000933;28;20046;-84
2024/01/06 07:01:36;;;;;;;21.40;10.50;;;;;;;5.13;56.81;93492.09;5037530;28;20045;-84
2024/01/06 07:04:09;;;;;;;15.88;10.10;;;;;;;5.51;55.62;93508.63;5002608;28;20080;-84
2024/01/06 07:06:36;;;;;;;19.02;9.25;;;;;;;5.63;55.76;93510.03;4999961;28;20065;-85
2024/01/06 07:09:01;;;;;;;14.98;9.05;;;;;;;5.77;55.63;93509.00;5004040;28;20812;-84
2024/01/06 07:11:27;;;;;;;14.27;9.73;;;;;;;5.90;55.27;93505.59;5004835;28;20604;-84
2024/01/06 07:13:53;;;;;;;16.92;9.82;;;;;;;5.99;54.94;93509.13;5007922;28;20167;-83
2024/01/06 07:16:19;;;;;;;14.73;9.43;;;;;;;5.84;54.62;93485.63;5004019;28;21669;-85
2024/01/06 07:18:44;;;;;;;21.98;10.73;;;;;;;5.12;56.58;93484.44;5016335;28;20052;-84
2024/01/06 07:21:17;;;;;;;19.58;9.82;;;;;;;5.14;55.95;93419.03;5015289;28;20591;-84
2024/01/06 07:23:42;;;;;;;15.18;9.43;;;;;;;5.87;55.47;93500.88;5000545;28;20113;-85
2024/01/06 07:26:08;;;;;;;15.55;9.65;;;;;;;5.93;55.55;93501.59;5001308;28;20064;-85
2024/01/06 07:28:33;;;;;;;14.95;10.82;;;;;;;5.53;55.86;93495.13;4997733;28;20524;-83
2024/01/06 07:31:00;;;;;;;21.30;12.07;;;;;;;5.64;56.72;93496.53;5011065;28;20384;-84
2024/01/06 07:33:26;;;;;;;20.77;11.73;;;;;;;5.99;55.85;93493.28;5020889;28;20254;-86
2024/01/06 07:35:51;;;;;;;22.52;13.40;;;;;;;5.69;56.57;93501.72;5053616;28;20041;-86
2024/01/06 07:38:17;;;;;;;20.50;12.75;;;;;;;5.35;55.72;93395.75;5007321;28;20148;-86
2024/01/06 07:40:45;;;;;;;21.58;13.50;;;;;;;5.90;55.08;93450.16;4999147;28;20091;-86
2024/01/06 07:43:15;;;;;;;29.30;17.42;;;;;;;6.19;55.18;93478.97;5006477;28;20033;-86
2024/01/06 07:45:41;;;;;;;24.38;13.85;;;;;;;5.94;54.62;93400.22;5002023;28;20037;-86
2024/01/06 07:48:07;;;;;;;29.17;14.75;;;;;;;6.57;54.00;93471.59;5031387;28;20180;-85
2024/01/06 07:50:32;;;;;;;24.45;13.43;;;;;;;6.16;53.81;93389.00;4999481;28;20560;-84
2024/01/06 07:52:58;;;;;;;23.52;13.93;;;;;;;6.00;54.58;93430.72;5029848;28;20029;-84
2024/01/06 07:55:23;;;;;;;23.90;14.02;;;;;;;6.67;54.14;93492.53;5019603;28;20508;-84
2024/01/06 07:57:48;;;;;;;14.32;10.65;;;;;;;6.64;54.25;93474.63;5005632;28;20140;-84
2024/01/06 08:00:17;;;;;;;14.48;9.63;;;;;;;6.43;53.75;93418.78;4998321;28;20061;-83
2024/01/06 08:02:42;;;;;;;14.07;9.30;;;;;;;7.02;53.42;93492.84;5000065;28;20045;-85
2024/01/06 08:05:08;;;;;;;15.52;9.10;;;;;;;7.20;53.09;93494.56;5001408;28;20041;-85
2024/01/06 08:07:34;;;;;;;14.18;8.90;;;;;;;7.30;52.63;93483.75;5011289;28;20627;-85
2024/01/06 08:09:59;;;;;;;14.57;8.13;;;;;;;6.88;52.83;93410.16;5001240;28;20393;-86
2024/01/06 08:12:25;;;;;;;15.95;9.18;;;;;;;7.38;53.13;93485.69;4996464;28;20033;-85
2024/01/06 08:14:50;;;;;;;23.70;13.93;;;;;;;7.07;53.42;93488.25;4999793;28;20049;-83
2024/01/06 08:17:16;;;;;;;23.08;13.93;;;;;;;6.82;53.75;93455.22;4999002;28;20042;-85
2024/01/06 08:19:41;;;;;;;27.75;16.67;;;;;;;6.78;53.46;93413.81;4997953;28;20539;-83
2024/01/06 08:22:07;;;;;;;28.15;15.43;;;;;;;7.42;52.93;93480.56;5000097;28;20077;-86
2024/01/06 08:24:36;;;;;;;29.77;14.93;;;;;;;7.00;52.47;93383.97;5000585;28;20045;-85
2024/01/06 08:27:01;;;;;;;23.73;14.45;;;;;;;6.86;51.76;93350.44;5001580;28;20050;-85
2024/01/06 08:29:27;;;;;;;22.15;10.18;;;;;;;7.53;51.31;93450.16;5020920;28;20029;-85
2024/01/06 08:31:54;;;;;;;18.65;9.35;;;;;;;7.37;51.85;93483.34;5003564;28;20402;-85
2024/01/06 08:34:19;;;;;;;15.18;8.77;;;;;;;7.61;51.57;93467.94;5020365;28;20060;-85
2024/01/06 08:36:45;;;;;;;16.92;10.27;;;;;;;7.60;50.98;93482.25;5032026;28;20021;-85
2024/01/06 08:39:11;;;;;;;15.32;9.00;;;;;;;7.53;51.72;93487.94;5015038;28;20038;-85
2024/01/06 08:41:39;;;;;;;12.88;7.00;;;;;;;7.77;51.54;93471.81;4997921;28;20465;-85
2024/01/06 08:44:05;;;;;;;11.70;6.00;;;;;;;7.58;50.19;93487.06;5003240;28;20037;-85
2024/01/06 08:46:31;;;;;;;20.02;11.18;;;;;;;7.09;51.67;93427.13;5020272;28;20042;-84
2024/01/06 08:48:56;;;;;;;27.75;14.43;;;;;;;7.43;52.26;93474.22;4999622;28;20751;-84
2024/01/06 08:51:23;;;;;;;33.65;15.10;;;;;;;6.89;54.01;93498.97;5002917;28;20021;-85
2024/01/06 08:53:49;;;;;;;25.85;13.85;;;;;;;7.06;53.34;93477.94;5014688;28;20397;-85
2024/01/06 08:56:16;;;;;;;31.52;14.80;;;;;;;6.48;53.79;93394.13;4996550;28;20049;-85
2024/01/06 08:58:41;;;;;;;24.20;14.32;;;;;;;6.81;54.63;93476.66;4984332;28;20052;-85
2024/01/06 09:01:06;;;;;;;21.83;12.98;;;;;;;7.00;53.38;93413.03;5000582;28;20970;-86
2024/01/06 09:03:32;;;;;;;28.15;12.73;;;;;;;7.03;53.36;93481.22;4999916;28;20117;-85
2024/01/06 09:05:57;;;;;;;23.23;12.73;;;;;;;6.84;53.89;93421.34;5001591;28;20042;-85
2024/01/06 09:08:29;;;;;;;28.00;13.88;;;;;;;5.77;53.26;93255.69;5003147;28;20030;-86
2024/01/06 09:10:58;;;;;;;22.30;13.00;;;;;;;6.56;53.77;93384.69;4998905;28;20481;-85
2024/01/06 09:13:26;;;;;;;25.45;13.10;;;;;;;6.69;52.76;93389.19;5034772;28;20045;-85
2024/01/06 09:15:52;;;;;;;22.77;14.15;;;;;;;6.15;54.22;93369.69;5002746;28;20639;-85
2024/01/06 09:18:18;;;;;;;22.50;12.48;;;;;;;7.13;53.36;93457.19;5001435;28;20041;-86
2024/01/06 09:20:43;;;;;;;26.13;13.50;;;;;;;6.59;54.46;93444.88;5015805;28;20128;-85
2024/01/06 09:23:10;;;;;;;23.20;13.43;;;;;;;5.75;54.56;93276.28;4999339;28;20088;-85
2024/01/06 09:25:35;;;;;;;30.20;15.38;;;;;;;7.28;53.79;93438.31;5011187;28;20059;-86
2024/01/06 09:28:01;;;;;;;24.85;15.57;;;;;;;6.71;53.54;93342.06;5029208;28;20046;-85
2024/01/06 09:30:29;;;;;;;25.75;13.25;;;;;;;6.65;52.76;93272.72;5009262;28;20042;-85
2024/01/06 09:32:55;;;;;;;26.70;13.52;;;;;;;7.44;53.09;93417.53;5009455;28;20050;-85
2024/01/06 09:35:20;;;;;;;33.55;17.27;;;;;;;7.63;52.18;93397.72;5009755;28;20060;-85
2024/01/06 09:37:49;;;;;;;24.55;13.02;;;;;;;6.47;52.48;93228.00;5012927;28;20098;-85
2024/01/06 09:40:21;;;;;;;27.52;13.60;;;;;;;6.98;52.32;93259.22;5004628;28;20041;-84
2024/01/06 09:42:46;;;;;;;30.77;14.93;;;;;;;6.74;51.45;93228.66;5006014;28;20025;-85
2024/01/06 09:45:12;;;;;;;30.48;15.88;;;;;;;7.44;51.79;93336.31;5028073;28;20077;-85
2024/01/06 09:47:40;;;;;;;26.05;15.27;;;;;;;6.98;51.51;93216.94;5020284;28;20041;-85
2024/01/06 09:50:09;;;;;;;27.98;14.18;;;;;;;7.84;52.26;93397.22;5003904;28;20713;-84
2024/01/06 09:52:40;;;;;;;31.17;13.63;;;;;;;8.16;51.69;93378.34;5038174;28;20123;-85
2024/01/06 09:55:10;;;;;;;27.33;13.02;;;;;;;8.23;51.97;93383.97;5038460;28;20032;-85
2024/01/06 09:57:36;;;;;;;25.65;12.73;;;;;;;7.97;51.42;93322.97;4998291;28;20033;-86
2024/01/06 10:00:08;;;;;;;21.15;13.55;;;;;;;8.37;51.17;93389.91;4999727;28;20045;-85
2024/01/06 10:02:33;;;;;;;30.42;14.10;;;;;;;7.22;51.13;93191.69;5018938;28;20033;-85
2024/01/06 10:04:59;;;;;;;22.92;13.55;;;;;;;7.28;51.29;93232.00;4987438;28;20040;-85
2024/01/06 10:07:28;;;;;;;22.98;12.75;;;;;;;7.59;53.26;93369.53;4986471;28;20378;-86
2024/01/06 10:09:56;;;;;;;30.83;16.85;;;;;;;7.30;53.81;93367.34;5017455;28;20113;-85
2024/01/06 10:12:25;;;;;;;30.90;15.73;;;;;;;7.13;55.06;93381.28;4996961;28;20042;-85
2024/01/06 10:14:52;;;;;;;32.53;16.60;;;;;;;6.51;54.74;93234.22;4987948;28;20065;-85
2024/01/06 10:17:19;;;;;;;32.95;16.90;;;;;;;7.28;53.95;93283.03;4986496;28;20038;-85
2024/01/06 10:19:45;;;;;;;32.05;15.38;;;;;;;7.57;53.90;93366.41;5019731;28;20046;-86
2024/01/06 10:22:11;;;;;;;37.30;18.63;;;;;;;7.31;54.58;93358.34;4987898;28;20034;-85
2024/01/06 10:24:40;;;;;;;38.05;19.88;;;;;;;7.46;55.07;93355.31;4984196;28;20385;-85
2024/01/06 10:27:06;;;;;;;28.15;14.90;;;;;;;7.65;54.09;93350.56;4987123;28;20092;-86
2024/01/06 10:29:32;;;;;;;25.70;14.70;;;;;;;8.01;52.94;93357.59;5005714;28;20174;-84
2024/01/06 10:31:58;;;;;;;25.08;14.32;;;;;;;7.40;52.85;93236.69;5013829;28;20033;-86
2024/01/06 10:34:24;;;;;;;37.35;16.08;;;;;;;7.97;53.41;93338.09;5039018;28;20033;-87
2024/01/06 10:36:51;;;;;;;28.42;16.02;;;;;;;7.45;52.94;93265.66;5008810;28;20022;-87
2024/01/06 10:39:18;;;;;;;24.67;13.13;;;;;;;7.26;52.73;93260.59;4988223;28;20133;-86
2024/01/06 10:41:44;;;;;;;31.70;13.73;;;;;;;6.74;54.97;93231.28;4986465;28;20096;-86
2024/01/06 10:44:11;;;;;;;24.23;13.98;;;;;;;7.30;54.81;93330.31;5016129;28;20050;-87
2024/01/06 10:46:38;;;;;;;25.10;12.98;;;;;;;7.26;54.70;93326.72;4987019;28;20056;-87
2024/01/06 10:49:08;;;;;;;22.33;12.32;;;;;;;7.17;54.45;93310.03;5008584;28;20039;-86
2024/01/06 10:51:36;;;;;;;17.70;9.70;;;;;;;7.21;54.49;93322.34;5036602;28;20280;-86
2024/01/06 10:54:02;;;;;;;21.00;11.23;;;;;;;7.40;54.19;93319.47;5000966;28;20034;-87
2024/01/06 10:56:29;;;;;;;18.67;11.80;;;;;;;7.35;54.37;93306.38;5003872;28;20078;-86
2024/01/06 10:58:56;;;;;;;18.20;10.68;;;;;;;7.45;54.04;93306.13;5005215;28;20033;-87
2024/01/06 11:01:30;;;;;;;25.02;13.23;;;;;;;7.05;55.04;93307.94;5033586;28;20088;-86
2024/01/06 11:03:56;;;;;;;23.90;12.20;;;;;;;6.89;54.80;93269.00;4996833;28;20030;-89
2024/01/06 11:06:22;;;;;;;25.38;13.07;;;;;;;6.55;54.92;93256.34;5030353;28;20053;-88
2024/01/06 11:09:13;;;;;;;30.52;15.48;;;;;;;6.74;56.26;93292.06;5000471;28;20126;-87
2024/01/06 11:11:39;;;;;;;36.75;14.57;;;;;;;7.13;54.92;93288.72;5001234;28;20041;-87
2024/01/06 11:14:22;;;;;;;27.67;14.50;;;;;;;6.77;55.34;93261.59;4998185;28;20120;-86
2024/01/06 11:16:48;;;;;;;29.20;12.00;;;;;;;7.09;54.89;93261.28;5001730;28;20040;-87
2024/01/06 11:19:35;;;;;;;29.42;15.23;;;;;;;6.81;54.87;93281.06;5002564;28;20796;-87
2024/01/06 11:22:18;;;;;;;29.50;15.88;;;;;;;6.96;56.14;93270.09;5016910;28;20057;-87
2024/01/06 11:24:50;;;;;;;27.15;15.50;;;;;;;7.35;55.68;93279.94;5000910;28;20069;-86
2024/01/06 11:27:28;;;;;;;27.65;15.27;;;;;;;7.60;54.11;93266.03;4997927;28;20085;-87
2024/01/06 11:29:57;;;;;;;27.50;14.38;;;;;;;6.40;54.45;93117.50;5017138;28;20137;-88
2024/01/06 11:32:36;;;;;;;30.25;16.35;;;;;;;7.57;54.14;93265.88;5014075;28;20042;-88